createdAt,value
2019-01-10T00:03:00.985Z,0.9
2019-01-10T00:08:01.144Z,1
2019-01-10T00:13:00.986Z,1
2019-01-10T00:18:00.987Z,1
2019-01-10T00:23:01.004Z,0.9
2019-01-10T00:28:01.180Z,0.9
2019-01-10T00:33:01.005Z,0.9
2019-01-10T00:38:00.984Z,0.9
2019-01-10T00:43:01.009Z,0.8
2019-01-10T00:48:01.222Z,0.9
2019-01-10T00:53:01.040Z,0.9
2019-01-10T00:58:01.019Z,0.9
2019-01-10T01:03:01.035Z,0.9
2019-01-10T01:08:01.140Z,0.9
2019-01-10T01:18:01.197Z,0.9
2019-01-10T01:23:01.023Z,0.9
2019-01-10T01:28:01.133Z,0.9
2019-01-10T01:33:01.041Z,0.9
2019-01-10T01:38:01.037Z,0.9
2019-01-10T01:43:07.235Z,0.9
2019-01-10T01:48:01.020Z,0.9
2019-01-10T01:53:01.252Z,0.9
2019-01-10T01:58:01.034Z,0.9
2019-01-10T02:03:01.049Z,0.8
2019-01-10T02:08:01.048Z,0.9
2019-01-10T02:13:01.180Z,0.9
2019-01-10T02:18:01.055Z,0.9
2019-01-10T02:23:01.046Z,0.9
2019-01-10T02:28:01.069Z,0.9
2019-01-10T02:33:01.180Z,0.9
2019-01-10T02:38:01.068Z,0.9
2019-01-10T02:43:01.073Z,0.9
2019-01-10T02:48:01.079Z,0.9
2019-01-10T02:53:01.076Z,0.9
2019-01-10T02:58:01.070Z,0.9
2019-01-10T03:03:01.079Z,0.8
2019-01-10T03:08:01.073Z,0.8
2019-01-10T03:13:01.301Z,0.9
2019-01-10T03:18:01.091Z,0.8
2019-01-10T03:23:01.247Z,0.8
2019-01-10T03:28:01.098Z,0.8
2019-01-10T03:33:01.335Z,0.8
2019-01-10T03:38:01.255Z,0.8
2019-01-10T03:43:01.780Z,0.8
2019-01-10T03:48:01.109Z,0.8
2019-01-10T03:53:01.110Z,0.8
2019-01-10T03:58:01.160Z,0.8
2019-01-10T04:03:01.119Z,0.8
2019-01-10T04:08:01.111Z,0.8
2019-01-10T04:13:01.108Z,0.7
2019-01-10T04:18:01.216Z,0.8
2019-01-10T04:23:01.120Z,0.8
2019-01-10T04:28:01.137Z,0.8
2019-01-10T04:33:01.092Z,0.8
2019-01-10T04:38:01.131Z,0.8
2019-01-10T04:43:01.126Z,0.8
2019-01-10T04:48:01.330Z,0.8
2019-01-10T04:53:01.246Z,0.8
2019-01-10T04:58:01.806Z,0.8
2019-01-10T05:03:01.317Z,0.8
2019-01-10T05:08:01.140Z,0.8
2019-01-10T05:13:01.153Z,0.8
2019-01-10T05:18:01.152Z,0.8
2019-01-10T05:23:01.162Z,0.8
2019-01-10T05:28:01.152Z,0.8
2019-01-10T05:33:01.154Z,0.8
2019-01-10T05:38:01.168Z,0.8
2019-01-10T05:43:01.168Z,0.7
2019-01-10T05:48:01.166Z,0.8
2019-01-10T05:53:01.175Z,0.8
2019-01-10T05:58:01.174Z,0.8
2019-01-10T06:03:01.176Z,0.8
2019-01-10T06:08:01.209Z,0.8
2019-01-10T06:13:01.191Z,0.8
2019-01-10T06:18:01.161Z,0.8
2019-01-10T06:23:01.324Z,0.8
2019-01-10T06:28:01.149Z,0.8
2019-01-10T06:33:01.180Z,0.7
2019-01-10T06:38:01.182Z,0.8
2019-01-10T06:43:01.184Z,0.7
2019-01-10T06:48:01.198Z,0.7
2019-01-10T06:53:01.203Z,0.7
2019-01-10T06:58:01.204Z,0.7
2019-01-10T07:03:01.216Z,0.7
2019-01-10T07:08:01.361Z,0.7
2019-01-10T07:13:01.221Z,0.7
2019-01-10T07:18:01.436Z,0.7
2019-01-10T07:23:01.202Z,0.8
2019-01-10T07:28:01.196Z,0.8
2019-01-10T07:33:01.231Z,0.9
2019-01-10T07:38:01.238Z,0.9
2019-01-10T07:43:01.243Z,0.9
2019-01-10T07:48:01.242Z,1
2019-01-10T07:53:01.231Z,1
2019-01-10T07:58:01.255Z,1.1
2019-01-10T08:03:01.253Z,1.1
2019-01-10T08:08:01.431Z,1.2
2019-01-10T08:13:01.247Z,1.2
2019-01-10T08:18:01.386Z,1.2
2019-01-10T08:23:01.211Z,1.3
2019-01-10T08:28:01.250Z,1.3
2019-01-10T08:33:01.261Z,1.3
2019-01-10T08:38:01.237Z,1.4
2019-01-10T08:43:01.266Z,1.5
2019-01-10T08:48:01.271Z,1.5
2019-01-10T08:53:01.242Z,1.6
2019-01-10T08:58:01.273Z,1.7
2019-01-10T09:03:01.286Z,1.8
2019-01-10T09:08:01.295Z,1.8
2019-01-10T09:13:01.272Z,1.7
2019-01-10T09:18:01.289Z,1.8
2019-01-10T09:23:01.287Z,1.7
2019-01-10T09:28:01.289Z,1.8
2019-01-10T09:33:01.288Z,1.8
2019-01-10T09:38:01.273Z,1.8
2019-01-10T09:43:01.296Z,1.9
2019-01-10T09:48:01.297Z,2
2019-01-10T09:53:01.460Z,1.9
2019-01-10T09:58:01.314Z,2
2019-01-10T10:03:01.430Z,1.9
2019-01-10T10:08:01.295Z,1.9
2019-01-10T10:13:01.306Z,1.8
2019-01-10T10:18:01.321Z,1.8
2019-01-10T10:23:01.474Z,1.9
2019-01-10T10:28:01.320Z,1.9
2019-01-10T10:33:01.559Z,1.9
2019-01-10T10:38:01.326Z,1.9
2019-01-10T10:43:01.498Z,2.1
2019-01-10T10:48:01.324Z,2.2
2019-01-10T10:53:01.469Z,2.2
2019-01-10T10:58:01.334Z,2.2
2019-01-10T11:03:01.330Z,2.3
2019-01-10T11:08:01.334Z,2.3
2019-01-10T11:13:01.338Z,2.1
2019-01-10T11:18:01.341Z,2.3
2019-01-10T11:23:10.137Z,2.4
2019-01-10T11:28:01.360Z,2.3
2019-01-10T11:33:01.344Z,2.4
2019-01-10T11:38:01.347Z,2.4
2019-01-10T11:43:01.338Z,2.6
2019-01-10T11:48:01.352Z,2.7
2019-01-10T11:53:01.571Z,2.6
2019-01-10T11:58:01.328Z,2.7
2019-01-10T12:03:01.377Z,2.9
2019-01-10T12:08:01.328Z,3
2019-01-10T12:13:01.372Z,3.1
2019-01-10T12:18:01.380Z,3.2
2019-01-10T12:23:01.364Z,3.2
2019-01-10T12:28:01.382Z,3.2
2019-01-10T12:33:01.378Z,3
2019-01-10T12:38:01.422Z,2.9
2019-01-10T12:43:01.383Z,3
2019-01-10T12:48:01.666Z,2.9
2019-01-10T12:53:01.399Z,2.9
2019-01-10T12:58:01.474Z,2.8
2019-01-10T13:03:01.399Z,2.6
2019-01-10T13:08:03.550Z,2.5
2019-01-10T13:13:01.420Z,2.6
2019-01-10T13:18:01.377Z,2.5
2019-01-10T13:23:01.412Z,2.4
2019-01-10T13:28:01.412Z,2.4
2019-01-10T13:33:01.428Z,2.4
2019-01-10T13:38:01.437Z,2.3
2019-01-10T13:43:01.607Z,2.3
2019-01-10T13:48:01.432Z,2.3
2019-01-10T13:53:01.580Z,2.1
2019-01-10T13:58:01.614Z,2.1
2019-01-10T14:03:01.447Z,2.2
2019-01-10T14:08:01.434Z,2.2
2019-01-10T14:13:01.602Z,2.2
2019-01-10T14:18:01.458Z,2.1
2019-01-10T14:23:01.565Z,2
2019-01-10T14:28:01.448Z,2
2019-01-10T14:33:01.651Z,2
2019-01-10T14:38:01.452Z,2
2019-01-10T14:43:01.602Z,1.9
2019-01-10T14:48:01.874Z,1.8
2019-01-10T14:53:01.687Z,1.7
2019-01-10T14:58:01.465Z,1.7
2019-01-10T15:03:01.640Z,1.7
2019-01-10T15:08:01.472Z,1.7
2019-01-10T15:13:01.604Z,1.7
2019-01-10T15:18:01.462Z,1.6
2019-01-10T15:23:01.473Z,1.7
2019-01-10T15:28:01.467Z,1.7
2019-01-10T15:33:01.480Z,1.7
2019-01-10T15:38:01.482Z,1.6
2019-01-10T15:43:01.491Z,1.6
2019-01-10T15:48:01.612Z,1.5
2019-01-10T15:53:01.671Z,1.5
2019-01-10T15:58:01.714Z,1.5
2019-01-10T16:03:01.491Z,1.4
2019-01-10T16:08:01.492Z,1.4
2019-01-10T16:13:01.507Z,1.4
2019-01-10T16:18:01.490Z,1.3
2019-01-10T16:23:01.511Z,1.3
2019-01-10T16:28:01.495Z,1.2
2019-01-10T16:33:01.521Z,1.2
2019-01-10T16:38:01.506Z,1.2
2019-01-10T16:43:01.591Z,1.1
2019-01-10T16:48:01.554Z,1.1
2019-01-10T16:53:01.546Z,1
2019-01-10T16:58:01.550Z,1
2019-01-10T17:03:01.529Z,1
2019-01-10T17:08:01.515Z,1
2019-01-10T17:13:01.537Z,1
2019-01-10T17:18:01.550Z,0.9
2019-01-10T17:23:01.544Z,0.9
2019-01-10T17:28:01.559Z,0.9
2019-01-10T17:33:01.522Z,0.8
2019-01-10T17:38:01.536Z,0.8
2019-01-10T17:43:01.705Z,0.8
2019-01-10T17:48:01.569Z,0.7
2019-01-10T17:53:01.557Z,0.7
2019-01-10T17:58:01.571Z,0.8
2019-01-10T18:03:01.583Z,0.7
2019-01-10T18:08:01.565Z,0.7
2019-01-10T18:13:01.580Z,0.7
2019-01-10T18:18:01.581Z,0.7
2019-01-10T18:23:01.590Z,0.7
2019-01-10T18:28:01.597Z,0.7
2019-01-10T18:33:01.540Z,0.7
2019-01-10T18:38:01.688Z,0.7
2019-01-10T18:43:01.590Z,0.7
2019-01-10T18:48:01.591Z,0.7
2019-01-10T18:53:01.733Z,0.7
2019-01-10T18:58:01.707Z,0.7
2019-01-10T19:03:02.070Z,0.6
2019-01-10T19:08:01.712Z,0.7
2019-01-10T19:13:02.415Z,0.7
2019-01-10T19:18:03.426Z,0.7
2019-01-10T19:23:02.293Z,0.7
2019-01-10T19:28:01.708Z,0.7
2019-01-10T19:33:01.673Z,0.7
2019-01-10T19:38:01.824Z,0.7
2019-01-10T19:43:02.053Z,0.6
2019-01-10T19:48:01.931Z,0.6
2019-01-10T19:53:02.281Z,0.6
2019-01-10T19:58:01.903Z,0.6
2019-01-10T20:03:01.860Z,0.5
2019-01-10T20:08:02.108Z,0.5
2019-01-10T20:13:02.107Z,0.5
2019-01-10T20:18:02.164Z,0.4
2019-01-10T20:23:01.949Z,0.4
2019-01-10T20:28:01.940Z,0.3
2019-01-10T20:33:01.880Z,0.3
2019-01-10T20:38:02.157Z,0.3
2019-01-10T20:43:02.007Z,0.2
2019-01-10T20:48:01.949Z,0.1
2019-01-10T20:53:02.011Z,0.1
2019-01-10T20:58:02.502Z,0.1
2019-01-10T21:03:02.735Z,0.1
2019-01-10T21:08:01.841Z,0
2019-01-10T21:13:02.038Z,0
2019-01-10T21:18:01.664Z,0
2019-01-10T21:23:01.668Z,0
2019-01-10T21:28:01.684Z,0
2019-01-10T21:33:01.705Z,-0.1
2019-01-10T21:38:01.666Z,-0.1
2019-01-10T21:43:01.671Z,-0.1
2019-01-10T21:48:01.671Z,-0.2
2019-01-10T21:53:01.706Z,-0.2
2019-01-10T21:58:01.692Z,-0.3
2019-01-10T22:03:01.752Z,-0.3
2019-01-10T22:08:01.696Z,-0.3
2019-01-10T22:13:01.660Z,-0.3
2019-01-10T22:18:01.694Z,-0.3
2019-01-10T22:23:01.681Z,-0.3
2019-01-10T22:28:01.701Z,-0.4
2019-01-10T22:33:01.703Z,-0.4
2019-01-10T22:38:01.697Z,-0.4
2019-01-10T22:43:01.694Z,-0.4
2019-01-10T22:48:01.713Z,-0.4
2019-01-10T22:53:01.688Z,-0.4
2019-01-10T22:58:01.706Z,-0.4
2019-01-10T23:03:01.713Z,-0.4
2019-01-10T23:08:01.722Z,-0.4
2019-01-10T23:13:01.706Z,-0.4
2019-01-10T23:18:01.724Z,-0.5
2019-01-10T23:23:01.728Z,-0.5
2019-01-10T23:28:01.726Z,-0.5
2019-01-10T23:33:01.742Z,-0.5
2019-01-10T23:38:01.749Z,-0.5
2019-01-10T23:43:01.737Z,-0.6
2019-01-10T23:48:01.738Z,-0.6
2019-01-10T23:53:01.744Z,-0.6
2019-01-10T23:58:01.747Z,-0.6
